Time;durP1;ratioP1;P1;durP2;ratioP2;P2;SDS_P1;SDS_P2;PMS_P1;PMS_P2;Temp;Humidity;BMP_temperature;BMP_pressure;BME280_temperature;BME280_humidity;BME280_pressure;Samples;Min_cycle;Max_cycle;Signal;HPM_P1;HPM_P2
2023/12/07 09:28:13;;;;;;;12.40;7.93;;;5.30;93.40;;;5.51;57.25;99134.00;6075142;23;96413;-81
2023/12/07 09:31:50;;;;;;;21.10;8.20;;;5.20;93.80;;;5.52;57.40;99149.34;5999403;23;114263;-86
2023/12/07 09:34:47;;;;;;;11.80;8.37;;;5.40;93.80;;;5.53;58.54;99156.47;5916689;23;123719;-86
2023/12/07 09:38:41;;;;;;;13.33;7.77;;;4.40;93.50;;;5.51;57.59;99147.72;5868536;23;122539;-86
2023/12/07 10:07:37;;;;;;;19.70;8.85;;;3.90;92.80;;;5.92;56.68;99128.56;6080471;23;114851;31
2023/12/07 10:11:13;;;;;;;12.57;7.80;;;6.20;94.10;;;6.00;56.56;99106.13;6049080;23;124381;-86
2023/12/07 10:14:18;;;;;;;11.97;7.47;;;5.60;93.30;;;6.10;55.95;99099.78;5936619;23;122438;-84
2023/12/07 10:17:13;;;;;;;12.00;7.37;;;5.60;93.00;;;6.16;56.00;99094.03;5916790;23;112804;-84
2023/12/07 10:20:47;;;;;;;14.80;6.90;;;3.20;92.40;;;6.29;56.44;99084.41;5866122;23;114574;-83
2023/12/07 10:49:31;;;;;;;10.53;5.90;;;7.20;92.10;;;7.66;52.29;99051.88;6084454;23;125159;-84
2023/12/07 10:52:07;;;;;;;11.43;6.17;;;7.10;91.50;;;7.78;52.02;99061.69;6088877;23;122938;-85
2023/12/07 10:55:13;;;;;;;6.10;4.60;;;7.40;91.50;;;7.91;51.71;99061.84;6062163;23;114127;-84
2023/12/07 10:58:26;;;;;;;11.20;6.50;;;9.00;92.20;;;8.11;50.79;99062.75;6050118;23;114673;-84
2023/12/07 11:02:16;;;;;;;7.83;5.00;;;7.50;91.00;;;8.29;51.03;99051.03;5978170;23;124780;-85
2023/12/07 11:05:33;;;;;;;12.33;4.87;;;7.80;91.10;;;8.52;50.72;99052.19;5969182;23;124413;-86
2023/12/07 11:09:12;;;;;;;9.47;5.07;;;6.10;90.50;;;8.74;49.85;99045.34;5978869;23;115020;-86
2023/12/07 11:17:34;;;;;;;10.40;4.40;;;5.60;88.20;;;9.28;48.46;99017.28;5888754;23;125246;-87
2023/12/07 11:24:15;;;;;;;5.93;4.07;;;8.70;87.50;;;9.69;47.06;99000.09;5806813;24;115516;-87
2023/12/07 11:27:49;;;;;;;6.47;5.00;;;9.00;87.50;;;9.90;46.34;98989.53;5804294;24;114320;-87
2023/12/07 11:31:26;;;;;;;8.60;3.73;;;9.20;87.50;;;10.19;45.89;98991.22;5799624;24;124591;-86
2023/12/07 11:34:40;;;;;;;9.83;4.70;;;12.70;88.80;;;10.41;44.03;98976.72;5801758;24;123238;-86
2023/12/07 11:37:39;;;;;;;6.63;4.80;;;9.30;84.30;;;10.58;44.61;98968.63;5801501;24;114044;-88
2023/12/07 11:40:31;;;;;;;7.13;3.83;;;9.90;84.60;;;10.82;44.12;98964.81;5774595;24;113389;-86
2023/12/07 11:43:37;;;;;;;8.10;4.33;;;10.00;84.00;;;11.08;43.88;98961.50;5774130;24;122212;-85
2023/12/07 11:46:55;;;;;;;6.43;4.13;;;10.40;82.80;;;11.27;43.72;98951.06;5712609;24;122875;-85
2023/12/07 11:49:24;;;;;;;6.23;3.97;;;7.70;80.90;;;11.44;43.31;98942.88;5707544;24;116152;-86
2023/12/07 11:51:51;;;;;;;6.37;3.37;;;10.70;82.20;;;11.58;42.81;98942.84;5833688;24;114768;-86
2023/12/07 11:54:19;;;;;;;5.43;3.73;;;10.90;81.50;;;11.73;42.86;98939.66;5877444;24;123066;-86
2023/12/07 11:57:11;;;;;;;10.60;4.40;;;11.10;81.20;;;11.93;42.35;98948.63;5858075;24;123273;-86
2023/12/07 11:59:51;;;;;;;8.03;3.40;;;11.30;80.50;;;12.16;40.95;98938.28;5854783;24;114705;-87
2023/12/07 12:02:22;;;;;;;4.00;3.20;;;11.40;79.30;;;12.34;39.81;98928.91;5830598;24;113427;-87
2023/12/07 12:04:55;;;;;;;3.60;2.53;;;12.60;77.40;;;12.45;39.64;98914.75;5828447;24;123543;-86
2023/12/07 12:07:26;;;;;;;2.60;2.20;;;11.80;75.80;;;12.55;39.25;98908.94;5807290;24;124865;-87
2023/12/07 12:10:44;;;;;;;4.03;2.40;;;12.00;75.40;;;12.62;38.15;98908.44;5853485;24;113746;-87
2023/12/07 12:13:39;;;;;;;3.80;2.60;;;12.10;72.40;;;12.65;38.68;98894.72;5850046;24;113392;-87
2023/12/07 12:16:22;;;;;;;4.03;2.10;;;12.30;72.80;;;12.76;38.44;98893.31;5794292;24;122255;-85
2023/12/07 12:18:53;;;;;;;4.00;2.73;;;12.30;72.70;;;12.90;37.80;98892.34;5791972;24;123256;-87
2023/12/07 12:21:40;;;;;;;13.23;2.50;;;14.70;74.50;;;13.00;37.94;98889.22;5806680;24;114582;-88
2023/12/07 12:24:28;;;;;;;4.60;2.60;;;12.60;71.50;;;13.05;37.68;98884.31;5843469;24;114359;-87
2023/12/07 12:27:05;;;;;;;2.77;2.47;;;12.70;71.20;;;13.13;37.61;98885.47;5874673;23;123769;-87
2023/12/07 12:29:33;;;;;;;4.70;3.10;;;12.80;70.40;;;13.19;36.73;98888.88;5892325;23;123021;-88
2023/12/07 12:32:10;;;;;;;4.93;3.27;;;11.80;67.90;;;13.17;36.35;98880.91;5900139;23;114138;-88
2023/12/07 12:34:41;;;;;;;5.07;2.87;;;15.60;71.10;;;13.23;36.40;98879.59;5923730;23;113214;-86
2023/12/07 12:37:12;;;;;;;6.30;2.57;;;13.00;67.90;;;13.33;36.45;98858.25;5872707;23;124434;-87
2023/12/07 12:39:39;;;;;;;2.90;2.60;;;13.00;68.40;;;13.44;35.68;98860.31;5979537;23;123074;-86
2023/12/07 12:42:07;;;;;;;4.17;2.70;;;13.10;67.40;;;13.47;35.49;98850.53;5980339;23;115739;-87
2023/12/07 12:44:35;;;;;;;3.57;2.60;;;13.10;66.10;;;13.55;35.85;98840.53;6012215;23;114383;-86
2023/12/07 12:47:17;;;;;;;4.20;2.80;;;13.20;66.70;;;13.66;35.66;98842.63;6054470;23;123243;-87
2023/12/07 12:49:44;;;;;;;4.43;2.30;;;13.30;66.70;;;13.75;35.74;98841.78;6095580;23;123563;-87
2023/12/07 12:52:19;;;;;;;4.97;2.80;;;14.00;67.40;;;13.85;35.50;98846.97;6072106;23;114807;-87
2023/12/07 12:54:48;;;;;;;3.67;2.70;;;13.50;66.60;;;13.95;35.72;98838.28;6069182;23;113998;-88
2023/12/07 12:57:18;;;;;;;6.40;4.00;;;15.90;69.30;;;14.14;35.83;98835.88;6094528;23;98636;-87
2023/12/07 12:59:50;;;;;;;6.10;3.77;;;13.80;66.20;;;14.30;35.11;98832.53;6066052;23;123506;-88
2023/12/07 13:02:18;;;;;;;6.60;3.67;;;13.90;66.90;;;14.42;34.97;98827.03;6067896;23;114710;-87
2023/12/07 13:04:45;;;;;;;10.77;3.87;;;14.00;65.70;;;14.57;34.08;98822.88;6065905;23;114105;-87
2023/12/07 13:07:14;;;;;;;9.70;4.20;;;15.20;64.80;;;14.70;33.97;98832.13;6089385;23;124657;-87
2023/12/07 13:09:44;;;;;;;5.40;3.40;;;14.30;63.50;;;14.85;34.02;98828.72;6068082;23;124374;-87
2023/12/07 13:12:13;;;;;;;3.90;2.80;;;14.40;63.90;;;15.03;33.81;98832.16;6065397;23;115176;-88
2023/12/07 13:14:41;;;;;;;4.27;2.70;;;15.90;64.70;;;15.15;33.49;98829.44;6084865;23;114471;-88
2023/12/07 13:17:10;;;;;;;5.63;3.33;;;17.40;65.60;;;15.23;33.57;98824.91;6061699;23;123495;-86
2023/12/07 13:19:36;;;;;;;6.43;3.00;;;17.90;65.20;;;15.28;33.66;98816.34;6061582;23;123847;-85
2023/12/07 13:22:06;;;;;;;4.30;2.93;;;15.10;63.20;;;15.34;33.47;98817.78;6062040;23;112876;-87
2023/12/07 13:24:33;;;;;;;4.00;2.80;;;15.00;62.10;;;15.38;33.47;98820.69;6061545;23;113157;-87
2023/12/07 13:27:00;;;;;;;9.90;3.43;;;15.20;63.80;;;15.37;32.27;98805.16;6058607;23;123474;-87
2023/12/07 13:29:29;;;;;;;4.43;3.50;;;15.30;59.90;;;15.27;32.47;98814.75;6060789;23;123237;-86
2023/12/07 13:31:55;;;;;;;5.00;3.30;;;13.20;57.20;;;15.12;32.43;98807.03;6060809;23;115619;-86
2023/12/07 13:34:22;;;;;;;5.70;2.80;;;16.60;60.20;;;14.99;32.52;98807.00;6060658;23;114951;-87
2023/12/07 13:36:50;;;;;;;4.47;2.83;;;15.20;58.80;;;14.88;32.77;98807.75;6059840;23;123441;-86
2023/12/07 13:39:20;;;;;;;4.30;2.87;;;15.10;59.70;;;14.75;32.76;98809.66;6062330;23;124214;-87
2023/12/07 13:41:49;;;;;;;8.40;3.50;;;13.20;56.80;;;14.60;32.07;98815.84;6061324;23;114449;-85
2023/12/07 13:44:18;;;;;;;3.53;2.50;;;14.90;56.60;;;14.39;32.47;98811.03;6061082;23;114194;-86
2023/12/07 13:46:47;;;;;;;6.20;2.90;;;14.80;58.20;;;14.25;33.00;98813.25;6038987;23;124212;-88
2023/12/07 13:49:17;;;;;;;6.70;2.37;;;14.50;57.50;;;14.14;32.89;98819.19;6042902;23;123622;-86
2023/12/07 13:51:45;;;;;;;3.97;2.93;;;14.50;57.20;;;14.05;32.97;98826.78;6064460;23;113529;-87
2023/12/07 13:54:14;;;;;;;5.40;3.17;;;14.40;56.90;;;13.88;32.35;98826.84;6068759;23;114116;-86
2023/12/07 13:56:41;;;;;;;3.73;2.73;;;14.20;56.10;;;13.65;32.09;98829.91;6073866;23;124216;-87
2023/12/07 13:59:13;;;;;;;3.40;2.87;;;12.00;53.20;;;13.51;32.29;98818.16;6074653;23;124166;-88
2023/12/07 14:01:44;;;;;;;4.33;2.80;;;14.00;55.30;;;13.42;33.02;98820.16;6054056;23;115406;-88
2023/12/07 14:04:36;;;;;;;4.20;2.63;;;13.90;55.60;;;13.37;33.15;98812.00;6029773;23;113729;-88
2023/12/07 14:07:14;;;;;;;3.83;2.57;;;13.80;55.60;;;13.31;33.06;98799.47;6027798;23;124780;-88
2023/12/07 14:09:46;;;;;;;4.77;2.67;;;13.70;55.80;;;13.29;33.34;98798.97;6029998;23;121752;-88
2023/12/07 14:12:46;;;;;;;5.10;2.30;;;13.90;56.20;;;13.23;33.10;98796.34;6072577;23;114239;-87
2023/12/07 14:15:22;;;;;;;3.17;2.20;;;13.60;55.90;;;13.17;33.15;98803.22;6052343;23;112635;-87
2023/12/07 14:18:02;;;;;;;4.03;2.37;;;13.50;55.40;;;13.10;32.60;98799.31;6052311;23;122545;-87
2023/12/07 14:20:36;;;;;;;3.83;2.00;;;13.50;54.30;;;13.00;32.65;98806.00;6049738;23;124020;-87
2023/12/07 14:23:28;;;;;;;2.07;1.87;;;13.40;54.60;;;12.88;32.42;98805.88;6017732;23;113334;-87
2023/12/07 14:26:02;;;;;;;3.23;2.20;;;13.30;54.10;;;12.78;32.57;98812.56;6016691;23;115312;-88
2023/12/07 14:28:30;;;;;;;3.77;1.90;;;13.20;54.20;;;12.69;32.53;98812.56;6023557;23;122304;-87
2023/12/07 14:31:04;;;;;;;3.07;2.00;;;13.10;54.20;;;12.59;32.35;98810.91;6000226;23;122445;-88
2023/12/07 14:33:35;;;;;;;2.23;1.70;;;13.10;53.70;;;12.44;32.00;98813.34;5915709;23;113562;-85
2023/12/07 14:36:19;;;;;;;2.53;1.67;;;12.90;53.50;;;12.26;31.85;98802.25;5956730;23;113974;-85
2023/12/07 14:38:55;;;;;;;3.40;1.97;;;12.70;52.40;;;12.14;32.20;98799.28;5960245;23;123708;-85
2023/12/07 14:41:45;;;;;;;6.17;1.70;;;12.50;52.90;;;12.03;32.19;98792.44;5904279;23;123385;-83
2023/12/07 14:44:11;;;;;;;1.70;1.50;;;12.40;52.40;;;11.91;32.32;98785.56;5893197;23;113240;-85
2023/12/07 14:47:01;;;;;;;5.10;1.70;;;12.30;53.00;;;11.81;32.26;98774.75;5934890;23;113788;-84
2023/12/07 14:49:49;;;;;;;4.70;1.70;;;12.10;52.10;;;11.72;32.45;98771.97;5890346;23;122244;-85
2023/12/07 14:52:18;;;;;;;4.07;2.03;;;12.50;52.60;;;11.60;32.31;98774.53;5866000;23;123962;-86
2023/12/07 14:55:34;;;;;;;3.70;2.20;;;14.80;54.60;;;11.48;32.28;98772.38;5921451;23;113970;-85
2023/12/07 14:58:16;;;;;;;3.60;2.60;;;11.60;51.80;;;11.34;32.37;98782.72;5912506;23;114315;-84
2023/12/07 15:00:44;;;;;;;4.07;1.77;;;11.60;52.10;;;11.24;32.68;98777.47;5908748;23;123717;-86
2023/12/07 15:03:33;;;;;;;2.90;1.73;;;11.50;52.50;;;11.12;32.60;98764.22;5938498;23;123513;-86
2023/12/07 15:06:17;;;;;;;2.50;1.73;;;11.00;51.80;;;11.03;32.84;98768.88;5968602;23;115048;-86
2023/12/07 15:08:47;;;;;;;4.10;1.80;;;13.10;53.90;;;10.93;32.75;98760.84;5944539;23;112823;-85
2023/12/07 15:11:47;;;;;;;3.03;2.07;;;11.20;52.50;;;10.82;32.83;98760.28;5947673;23;124446;-85
2023/12/07 15:15:11;;;;;;;5.43;1.80;;;11.10;52.50;;;10.71;33.13;98758.91;5952521;23;123859;-86
2023/12/07 15:17:52;;;;;;;2.83;2.20;;;11.00;52.50;;;10.61;33.32;98748.94;5999467;23;115302;-86
2023/12/07 15:21:20;;;;;;;6.10;2.33;;;10.60;52.80;;;10.50;33.50;98742.03;5954103;23;113749;-87
2023/12/07 15:25:12;;;;;;;4.20;2.23;;;11.30;53.30;;;10.33;33.61;98743.53;5975818;23;123991;-86
2023/12/07 15:29:03;;;;;;;4.70;2.23;;;10.20;52.50;;;10.19;33.87;98737.22;6000280;23;123264;-85
2023/12/07 15:32:25;;;;;;;2.93;1.90;;;11.30;54.00;;;10.07;34.50;98732.22;5898847;23;114515;-84
2023/12/07 15:35:14;;;;;;;2.80;1.87;;;10.40;53.60;;;9.97;34.68;98724.19;5912085;23;114478;-86
2023/12/07 15:38:33;;;;;;;4.27;2.30;;;10.20;54.40;;;9.85;34.65;98715.59;5916710;23;123973;-86
2023/12/07 15:42:19;;;;;;;5.93;2.30;;;8.50;53.40;;;9.78;35.00;98726.25;5889040;23;123823;-86
2023/12/07 15:45:46;;;;;;;5.87;2.37;;;9.90;55.60;;;9.63;34.78;98714.41;5886107;23;114342;-86
2023/12/07 15:49:00;;;;;;;4.80;2.40;;;9.80;55.00;;;9.49;34.17;98710.88;5833156;24;114665;-86
2023/12/07 15:51:56;;;;;;;4.07;2.70;;;9.90;54.10;;;9.29;34.42;98714.84;5850342;23;124534;-84
2023/12/07 15:58:47;;;;;;;5.70;2.27;;;9.20;54.50;;;9.02;35.07;98712.88;5843090;23;115571;-85
2023/12/07 16:16:38;;;;;;;3.53;2.50;;;6.40;53.70;;;8.56;36.01;98677.91;5788725;24;114955;-86
2023/12/07 16:22:49;;;;;;;3.97;2.37;;;8.60;55.90;;;8.34;36.08;98667.50;6040343;23;95735;-84
2023/12/07 16:25:49;;;;;;;5.13;2.57;;;8.60;57.20;;;8.29;36.37;98668.41;5889928;23;115622;-84
2023/12/07 16:32:48;;;;;;;12.53;3.73;;;8.30;56.50;;;8.15;36.76;98664.78;5890722;23;125293;-83
2023/12/07 16:35:55;;;;;;;3.63;3.23;;;8.20;56.70;;;8.07;36.95;98654.47;5835849;24;124346;-84
2023/12/07 16:50:35;;;;;;;6.70;3.73;;;5.60;55.60;;;7.68;37.71;98650.09;5784730;24;124765;-84
2023/12/07 19:12:30;;;;;;;6.77;4.53;;;5.10;63.30;;;6.40;41.54;98545.41;6031087;23;124734;-85
2023/12/07 19:25:37;;;;;;;9.97;5.40;;;6.30;64.90;;;6.33;42.11;98544.13;6090455;23;124823;-82
2023/12/07 19:44:14;;;;;;;8.77;5.00;;;6.10;65.20;;;6.23;41.93;98541.47;6067236;23;95845;-84
2023/12/07 19:51:49;;;;;;;9.93;5.10;;;3.40;63.10;;;6.16;42.04;98523.44;5919254;23;124801;-85
2023/12/07 19:59:54;;;;;;;7.37;4.90;;;6.30;66.10;;;6.12;42.40;98522.38;5782906;24;115155;-84
